sensor_id;sensor_type;location;lat;lon;timestamp;temperature;humidity
59556;DHT22;45374;52.746;6.304;2022-11-09T00:01:29;12.80;99.90
59556;DHT22;45374;52.746;6.304;2022-11-09T00:03:59;12.90;99.90
59556;DHT22;45374;52.746;6.304;2022-11-09T00:06:25;12.90;99.90
59556;DHT22;45374;52.746;6.304;2022-11-09T00:08:53;12.90;99.90
59556;DHT22;45374;52.746;6.304;2022-11-09T00:11:19;12.90;99.90
59556;DHT22;45374;52.746;6.304;2022-11-09T00:13:45;12.90;99.90
59556;DHT22;45374;52.746;6.304;2022-11-09T00:16:11;12.90;99.90
59556;DHT22;45374;52.746;6.304;2022-11-09T00:18:38;12.90;99.90
59556;DHT22;45374;52.746;6.304;2022-11-09T00:21:04;12.90;99.90
59556;DHT22;45374;52.746;6.304;2022-11-09T00:23:29;12.80;99.90
59556;DHT22;45374;52.746;6.304;2022-11-09T00:25:58;12.80;99.90
59556;DHT22;45374;52.746;6.304;2022-11-09T00:28:24;12.80;99.90
59556;DHT22;45374;52.746;6.304;2022-11-09T00:30:49;12.80;99.90
59556;DHT22;45374;52.746;6.304;2022-11-09T00:33:15;12.80;99.90
59556;DHT22;45374;52.746;6.304;2022-11-09T00:35:40;12.80;99.90
59556;DHT22;45374;52.746;6.304;2022-11-09T00:38:06;12.80;99.90
59556;DHT22;45374;52.746;6.304;2022-11-09T00:40:31;12.90;99.90
59556;DHT22;45374;52.746;6.304;2022-11-09T00:42:57;12.90;99.90
59556;DHT22;45374;52.746;6.304;2022-11-09T00:45:22;13.00;99.90
59556;DHT22;45374;52.746;6.304;2022-11-09T00:50:40;13.00;99.90
59556;DHT22;45374;52.746;6.304;2022-11-09T00:53:06;12.90;99.90
59556;DHT22;45374;52.746;6.304;2022-11-09T00:55:31;12.90;99.90
59556;DHT22;45374;52.746;6.304;2022-11-09T00:57:56;12.90;99.90
59556;DHT22;45374;52.746;6.304;2022-11-09T01:00:22;12.80;99.90
59556;DHT22;45374;52.746;6.304;2022-11-09T01:02:51;12.80;99.90
59556;DHT22;45374;52.746;6.304;2022-11-09T01:05:17;12.80;99.90
59556;DHT22;45374;52.746;6.304;2022-11-09T01:07:42;12.70;99.90
59556;DHT22;45374;52.746;6.304;2022-11-09T01:10:08;12.70;99.90
59556;DHT22;45374;52.746;6.304;2022-11-09T01:12:33;12.70;99.90
59556;DHT22;45374;52.746;6.304;2022-11-09T01:14:59;12.70;99.90
59556;DHT22;45374;52.746;6.304;2022-11-09T01:17:25;12.70;99.90
59556;DHT22;45374;52.746;6.304;2022-11-09T01:19:50;12.70;99.90
59556;DHT22;45374;52.746;6.304;2022-11-09T01:22:16;12.70;99.90
59556;DHT22;45374;52.746;6.304;2022-11-09T01:24:44;12.60;99.90
59556;DHT22;45374;52.746;6.304;2022-11-09T01:27:09;12.60;99.90
59556;DHT22;45374;52.746;6.304;2022-11-09T01:29:35;12.60;99.90
59556;DHT22;45374;52.746;6.304;2022-11-09T01:32:00;12.60;99.90
59556;DHT22;45374;52.746;6.304;2022-11-09T01:34:26;12.50;99.90
59556;DHT22;45374;52.746;6.304;2022-11-09T01:36:52;12.50;99.90
59556;DHT22;45374;52.746;6.304;2022-11-09T01:39:18;12.40;99.90
59556;DHT22;45374;52.746;6.304;2022-11-09T01:41:43;12.40;99.90
59556;DHT22;45374;52.746;6.304;2022-11-09T01:46:39;12.40;99.90
59556;DHT22;45374;52.746;6.304;2022-11-09T01:49:09;12.30;99.90
59556;DHT22;45374;52.746;6.304;2022-11-09T01:51:38;12.30;99.90
59556;DHT22;45374;52.746;6.304;2022-11-09T01:54:08;12.30;99.90
59556;DHT22;45374;52.746;6.304;2022-11-09T02:00:07;12.20;99.90
59556;DHT22;45374;52.746;6.304;2022-11-09T02:02:34;12.20;99.90
59556;DHT22;45374;52.746;6.304;2022-11-09T02:05:02;12.20;99.90
59556;DHT22;45374;52.746;6.304;2022-11-09T02:07:30;12.20;99.90
59556;DHT22;45374;52.746;6.304;2022-11-09T02:10:00;12.20;99.90
59556;DHT22;45374;52.746;6.304;2022-11-09T02:12:27;12.10;99.90
59556;DHT22;45374;52.746;6.304;2022-11-09T02:14:53;12.10;99.90
59556;DHT22;45374;52.746;6.304;2022-11-09T02:17:20;12.10;99.90
59556;DHT22;45374;52.746;6.304;2022-11-09T02:19:46;12.10;99.90
59556;DHT22;45374;52.746;6.304;2022-11-09T02:22:11;12.10;99.90
59556;DHT22;45374;52.746;6.304;2022-11-09T02:24:37;12.10;99.90
59556;DHT22;45374;52.746;6.304;2022-11-09T02:27:03;12.00;99.90
59556;DHT22;45374;52.746;6.304;2022-11-09T02:29:40;12.00;99.90
59556;DHT22;45374;52.746;6.304;2022-11-09T02:32:07;12.00;99.90
59556;DHT22;45374;52.746;6.304;2022-11-09T02:34:34;12.00;99.90
59556;DHT22;45374;52.746;6.304;2022-11-09T02:37:01;12.00;99.90
59556;DHT22;45374;52.746;6.304;2022-11-09T02:39:27;12.00;99.90
59556;DHT22;45374;52.746;6.304;2022-11-09T02:41:54;12.00;99.90
59556;DHT22;45374;52.746;6.304;2022-11-09T02:44:21;12.00;99.90
59556;DHT22;45374;52.746;6.304;2022-11-09T02:46:47;12.00;99.90
59556;DHT22;45374;52.746;6.304;2022-11-09T02:49:13;11.90;99.90
59556;DHT22;45374;52.746;6.304;2022-11-09T02:51:38;12.00;99.90
59556;DHT22;45374;52.746;6.304;2022-11-09T02:54:04;11.90;99.90
59556;DHT22;45374;52.746;6.304;2022-11-09T02:56:29;11.90;99.90
59556;DHT22;45374;52.746;6.304;2022-11-09T02:58:55;11.90;99.90
59556;DHT22;45374;52.746;6.304;2022-11-09T03:01:20;11.90;99.90
59556;DHT22;45374;52.746;6.304;2022-11-09T03:03:46;11.90;99.90
59556;DHT22;45374;52.746;6.304;2022-11-09T03:06:11;11.90;99.90
59556;DHT22;45374;52.746;6.304;2022-11-09T03:08:37;11.90;99.90
59556;DHT22;45374;52.746;6.304;2022-11-09T03:11:02;11.90;99.90
59556;DHT22;45374;52.746;6.304;2022-11-09T03:13:30;11.90;99.90
59556;DHT22;45374;52.746;6.304;2022-11-09T03:15:56;11.90;99.90
59556;DHT22;45374;52.746;6.304;2022-11-09T03:18:21;11.80;99.90
59556;DHT22;45374;52.746;6.304;2022-11-09T03:20:47;11.80;99.90
59556;DHT22;45374;52.746;6.304;2022-11-09T03:23:12;11.80;99.90
59556;DHT22;45374;52.746;6.304;2022-11-09T03:25:38;11.80;99.90
59556;DHT22;45374;52.746;6.304;2022-11-09T03:28:04;11.80;99.90
59556;DHT22;45374;52.746;6.304;2022-11-09T03:30:30;11.80;99.90
59556;DHT22;45374;52.746;6.304;2022-11-09T03:32:56;11.70;99.90
59556;DHT22;45374;52.746;6.304;2022-11-09T03:35:22;11.60;99.90
59556;DHT22;45374;52.746;6.304;2022-11-09T03:37:48;11.60;99.90
59556;DHT22;45374;52.746;6.304;2022-11-09T03:40:13;11.60;99.90
59556;DHT22;45374;52.746;6.304;2022-11-09T03:42:42;11.70;99.90
59556;DHT22;45374;52.746;6.304;2022-11-09T03:45:07;11.70;99.90
59556;DHT22;45374;52.746;6.304;2022-11-09T03:47:33;11.70;99.90
59556;DHT22;45374;52.746;6.304;2022-11-09T03:49:58;11.70;99.90
59556;DHT22;45374;52.746;6.304;2022-11-09T03:55:36;11.70;99.90
59556;DHT22;45374;52.746;6.304;2022-11-09T03:58:02;11.80;99.90
59556;DHT22;45374;52.746;6.304;2022-11-09T04:00:28;11.80;99.90
59556;DHT22;45374;52.746;6.304;2022-11-09T04:02:53;11.70;99.90
59556;DHT22;45374;52.746;6.304;2022-11-09T04:05:19;11.70;99.90
59556;DHT22;45374;52.746;6.304;2022-11-09T04:07:48;11.70;99.90
59556;DHT22;45374;52.746;6.304;2022-11-09T04:10:14;11.70;99.90
59556;DHT22;45374;52.746;6.304;2022-11-09T04:12:40;11.70;99.90
59556;DHT22;45374;52.746;6.304;2022-11-09T04:15:05;11.70;99.90
59556;DHT22;45374;52.746;6.304;2022-11-09T04:17:31;11.70;99.90
59556;DHT22;45374;52.746;6.304;2022-11-09T04:19:56;11.70;99.90
59556;DHT22;45374;52.746;6.304;2022-11-09T04:22:22;11.70;99.90
59556;DHT22;45374;52.746;6.304;2022-11-09T04:24:47;11.70;99.90
59556;DHT22;45374;52.746;6.304;2022-11-09T04:27:13;11.70;99.90
59556;DHT22;45374;52.746;6.304;2022-11-09T04:29:38;11.60;99.90
59556;DHT22;45374;52.746;6.304;2022-11-09T04:32:04;11.70;99.90
59556;DHT22;45374;52.746;6.304;2022-11-09T04:34:29;11.60;99.90
59556;DHT22;45374;52.746;6.304;2022-11-09T04:39:43;11.70;99.90
59556;DHT22;45374;52.746;6.304;2022-11-09T04:42:08;11.70;99.90
59556;DHT22;45374;52.746;6.304;2022-11-09T04:44:34;11.70;99.90
59556;DHT22;45374;52.746;6.304;2022-11-09T04:47:00;11.70;99.90
59556;DHT22;45374;52.746;6.304;2022-11-09T04:49:25;11.70;99.90
59556;DHT22;45374;52.746;6.304;2022-11-09T04:51:50;11.70;99.90
59556;DHT22;45374;52.746;6.304;2022-11-09T04:54:16;11.70;99.90
59556;DHT22;45374;52.746;6.304;2022-11-09T04:56:41;11.70;99.90
59556;DHT22;45374;52.746;6.304;2022-11-09T04:59:07;11.60;99.90
59556;DHT22;45374;52.746;6.304;2022-11-09T05:01:32;11.60;99.90
59556;DHT22;45374;52.746;6.304;2022-11-09T05:03:58;11.60;99.90
59556;DHT22;45374;52.746;6.304;2022-11-09T05:06:23;11.50;99.90
59556;DHT22;45374;52.746;6.304;2022-11-09T05:08:59;11.50;99.90
59556;DHT22;45374;52.746;6.304;2022-11-09T05:11:25;11.50;99.90
59556;DHT22;45374;52.746;6.304;2022-11-09T05:13:50;11.50;99.90
59556;DHT22;45374;52.746;6.304;2022-11-09T05:16:16;11.50;99.90
59556;DHT22;45374;52.746;6.304;2022-11-09T05:18:42;11.50;99.90
59556;DHT22;45374;52.746;6.304;2022-11-09T05:21:07;11.50;99.90
59556;DHT22;45374;52.746;6.304;2022-11-09T05:23:33;11.50;99.90
59556;DHT22;45374;52.746;6.304;2022-11-09T05:26:17;11.40;99.90
59556;DHT22;45374;52.746;6.304;2022-11-09T05:28:42;11.50;99.90
59556;DHT22;45374;52.746;6.304;2022-11-09T05:31:09;11.40;99.90
59556;DHT22;45374;52.746;6.304;2022-11-09T05:33:34;11.50;99.90
59556;DHT22;45374;52.746;6.304;2022-11-09T05:36:00;11.40;99.90
59556;DHT22;45374;52.746;6.304;2022-11-09T05:38:25;11.40;99.90
59556;DHT22;45374;52.746;6.304;2022-11-09T05:40:51;11.40;99.90
59556;DHT22;45374;52.746;6.304;2022-11-09T05:43:17;11.40;99.90
59556;DHT22;45374;52.746;6.304;2022-11-09T05:45:43;11.30;99.90
59556;DHT22;45374;52.746;6.304;2022-11-09T05:48:09;11.30;99.90
59556;DHT22;45374;52.746;6.304;2022-11-09T05:50:34;11.30;99.90
59556;DHT22;45374;52.746;6.304;2022-11-09T05:53:00;11.30;99.90
59556;DHT22;45374;52.746;6.304;2022-11-09T05:55:26;11.30;99.90
59556;DHT22;45374;52.746;6.304;2022-11-09T05:57:51;11.30;99.90
59556;DHT22;45374;52.746;6.304;2022-11-09T06:00:17;11.20;99.90
59556;DHT22;45374;52.746;6.304;2022-11-09T06:02:43;11.20;99.90
59556;DHT22;45374;52.746;6.304;2022-11-09T06:05:08;11.20;99.90
59556;DHT22;45374;52.746;6.304;2022-11-09T06:07:34;11.20;99.90
59556;DHT22;45374;52.746;6.304;2022-11-09T06:09:59;11.20;99.90
59556;DHT22;45374;52.746;6.304;2022-11-09T06:12:25;11.10;99.90
59556;DHT22;45374;52.746;6.304;2022-11-09T06:14:50;11.10;99.90
59556;DHT22;45374;52.746;6.304;2022-11-09T06:17:16;11.10;99.90
59556;DHT22;45374;52.746;6.304;2022-11-09T06:19:42;11.20;99.90
59556;DHT22;45374;52.746;6.304;2022-11-09T06:22:07;11.20;99.90
59556;DHT22;45374;52.746;6.304;2022-11-09T06:24:33;11.20;99.90
59556;DHT22;45374;52.746;6.304;2022-11-09T06:26:58;11.30;99.90
59556;DHT22;45374;52.746;6.304;2022-11-09T06:29:23;11.30;99.90
59556;DHT22;45374;52.746;6.304;2022-11-09T06:31:49;11.30;99.90
59556;DHT22;45374;52.746;6.304;2022-11-09T06:34:15;11.40;99.90
59556;DHT22;45374;52.746;6.304;2022-11-09T06:36:41;11.40;99.90
59556;DHT22;45374;52.746;6.304;2022-11-09T06:39:07;11.40;99.90
59556;DHT22;45374;52.746;6.304;2022-11-09T06:41:33;11.30;99.90
59556;DHT22;45374;52.746;6.304;2022-11-09T06:43:59;11.30;99.90
59556;DHT22;45374;52.746;6.304;2022-11-09T06:46:24;11.30;99.90
59556;DHT22;45374;52.746;6.304;2022-11-09T06:48:50;11.30;99.90
59556;DHT22;45374;52.746;6.304;2022-11-09T06:51:15;11.20;99.90
59556;DHT22;45374;52.746;6.304;2022-11-09T06:57:02;11.10;99.90
59556;DHT22;45374;52.746;6.304;2022-11-09T06:59:28;11.10;99.90
59556;DHT22;45374;52.746;6.304;2022-11-09T07:01:53;11.10;99.90
59556;DHT22;45374;52.746;6.304;2022-11-09T07:04:19;11.00;99.90
59556;DHT22;45374;52.746;6.304;2022-11-09T07:06:44;11.00;99.90
59556;DHT22;45374;52.746;6.304;2022-11-09T07:09:10;10.90;99.90
59556;DHT22;45374;52.746;6.304;2022-11-09T07:11:36;10.90;99.90
59556;DHT22;45374;52.746;6.304;2022-11-09T07:14:01;11.00;99.90
59556;DHT22;45374;52.746;6.304;2022-11-09T07:19:18;11.00;99.90
59556;DHT22;45374;52.746;6.304;2022-11-09T07:21:43;11.10;99.90
59556;DHT22;45374;52.746;6.304;2022-11-09T07:24:08;11.00;99.90
59556;DHT22;45374;52.746;6.304;2022-11-09T07:29:35;11.10;99.90
59556;DHT22;45374;52.746;6.304;2022-11-09T07:37:22;11.10;99.90
59556;DHT22;45374;52.746;6.304;2022-11-09T07:39:47;11.10;99.90
59556;DHT22;45374;52.746;6.304;2022-11-09T07:42:23;11.20;99.90
59556;DHT22;45374;52.746;6.304;2022-11-09T07:44:49;11.20;99.90
59556;DHT22;45374;52.746;6.304;2022-11-09T07:47:24;11.20;99.90
59556;DHT22;45374;52.746;6.304;2022-11-09T07:49:50;11.20;99.90
59556;DHT22;45374;52.746;6.304;2022-11-09T07:52:15;11.30;99.90
59556;DHT22;45374;52.746;6.304;2022-11-09T07:54:41;11.30;99.90
59556;DHT22;45374;52.746;6.304;2022-11-09T07:57:20;11.30;99.90
59556;DHT22;45374;52.746;6.304;2022-11-09T07:59:46;11.30;99.90
59556;DHT22;45374;52.746;6.304;2022-11-09T08:02:12;11.30;99.90
59556;DHT22;45374;52.746;6.304;2022-11-09T08:04:38;11.40;99.90
59556;DHT22;45374;52.746;6.304;2022-11-09T08:07:03;11.40;99.90
59556;DHT22;45374;52.746;6.304;2022-11-09T08:09:29;11.50;99.90
59556;DHT22;45374;52.746;6.304;2022-11-09T08:12:10;11.40;99.90
59556;DHT22;45374;52.746;6.304;2022-11-09T08:14:35;11.50;99.90
59556;DHT22;45374;52.746;6.304;2022-11-09T08:17:01;11.50;99.90
59556;DHT22;45374;52.746;6.304;2022-11-09T08:19:26;11.60;99.90
59556;DHT22;45374;52.746;6.304;2022-11-09T08:21:52;11.60;99.90
59556;DHT22;45374;52.746;6.304;2022-11-09T08:24:21;11.70;99.90
59556;DHT22;45374;52.746;6.304;2022-11-09T08:26:47;11.60;99.90
59556;DHT22;45374;52.746;6.304;2022-11-09T08:29:12;11.70;99.90
59556;DHT22;45374;52.746;6.304;2022-11-09T08:34:24;11.70;99.90
59556;DHT22;45374;52.746;6.304;2022-11-09T08:36:50;11.80;99.90
59556;DHT22;45374;52.746;6.304;2022-11-09T08:39:15;11.80;99.90
59556;DHT22;45374;52.746;6.304;2022-11-09T08:48:03;12.00;99.90
59556;DHT22;45374;52.746;6.304;2022-11-09T08:50:29;12.00;99.90
59556;DHT22;45374;52.746;6.304;2022-11-09T08:52:54;12.10;99.90
59556;DHT22;45374;52.746;6.304;2022-11-09T08:55:20;12.10;99.90
59556;DHT22;45374;52.746;6.304;2022-11-09T08:57:46;12.10;99.90
59556;DHT22;45374;52.746;6.304;2022-11-09T09:00:11;12.20;99.90
59556;DHT22;45374;52.746;6.304;2022-11-09T09:02:37;12.30;99.90
59556;DHT22;45374;52.746;6.304;2022-11-09T09:05:09;12.30;99.90
59556;DHT22;45374;52.746;6.304;2022-11-09T09:07:35;12.30;99.90
59556;DHT22;45374;52.746;6.304;2022-11-09T09:10:00;12.40;99.90
59556;DHT22;45374;52.746;6.304;2022-11-09T09:12:26;12.50;99.90
59556;DHT22;45374;52.746;6.304;2022-11-09T09:14:51;12.50;99.90
59556;DHT22;45374;52.746;6.304;2022-11-09T09:17:17;12.50;99.90
59556;DHT22;45374;52.746;6.304;2022-11-09T09:19:42;12.50;99.90
59556;DHT22;45374;52.746;6.304;2022-11-09T09:25:16;12.60;99.90
59556;DHT22;45374;52.746;6.304;2022-11-09T09:27:44;12.60;99.90
59556;DHT22;45374;52.746;6.304;2022-11-09T09:30:17;12.60;99.90
59556;DHT22;45374;52.746;6.304;2022-11-09T09:32:45;12.60;99.90
59556;DHT22;45374;52.746;6.304;2022-11-09T09:35:10;12.70;99.90
59556;DHT22;45374;52.746;6.304;2022-11-09T09:37:36;12.70;99.90
59556;DHT22;45374;52.746;6.304;2022-11-09T09:40:01;12.80;99.90
59556;DHT22;45374;52.746;6.304;2022-11-09T09:42:32;12.80;99.90
59556;DHT22;45374;52.746;6.304;2022-11-09T09:48:34;13.00;99.90
59556;DHT22;45374;52.746;6.304;2022-11-09T09:51:12;13.10;99.90
59556;DHT22;45374;52.746;6.304;2022-11-09T09:56:10;13.30;99.90
59556;DHT22;45374;52.746;6.304;2022-11-09T09:58:38;13.30;99.90
59556;DHT22;45374;52.746;6.304;2022-11-09T10:01:10;13.30;99.90
59556;DHT22;45374;52.746;6.304;2022-11-09T10:03:38;13.30;99.90
59556;DHT22;45374;52.746;6.304;2022-11-09T10:09:00;13.30;99.90
59556;DHT22;45374;52.746;6.304;2022-11-09T10:11:47;13.30;99.90
59556;DHT22;45374;52.746;6.304;2022-11-09T10:17:08;13.40;99.90
59556;DHT22;45374;52.746;6.304;2022-11-09T10:19:39;13.50;99.90
59556;DHT22;45374;52.746;6.304;2022-11-09T10:22:18;13.60;99.90
59556;DHT22;45374;52.746;6.304;2022-11-09T10:24:52;13.60;99.90
59556;DHT22;45374;52.746;6.304;2022-11-09T10:27:33;13.60;99.90
59556;DHT22;45374;52.746;6.304;2022-11-09T10:30:00;13.60;99.90
59556;DHT22;45374;52.746;6.304;2022-11-09T10:32:28;13.60;99.90
59556;DHT22;45374;52.746;6.304;2022-11-09T10:37:42;13.60;99.90
59556;DHT22;45374;52.746;6.304;2022-11-09T10:42:36;13.50;99.90
59556;DHT22;45374;52.746;6.304;2022-11-09T10:45:11;13.50;99.90
59556;DHT22;45374;52.746;6.304;2022-11-09T10:50:50;13.50;99.90
59556;DHT22;45374;52.746;6.304;2022-11-09T10:53:28;13.60;99.90
59556;DHT22;45374;52.746;6.304;2022-11-09T10:58:30;13.70;99.90
59556;DHT22;45374;52.746;6.304;2022-11-09T11:03:29;13.60;99.90
59556;DHT22;45374;52.746;6.304;2022-11-09T11:06:08;13.60;99.90
59556;DHT22;45374;52.746;6.304;2022-11-09T11:08:36;13.70;99.90
59556;DHT22;45374;52.746;6.304;2022-11-09T11:11:06;13.80;99.90
59556;DHT22;45374;52.746;6.304;2022-11-09T11:13:32;13.70;99.90
59556;DHT22;45374;52.746;6.304;2022-11-09T11:18:51;13.60;99.90
59556;DHT22;45374;52.746;6.304;2022-11-09T11:21:18;13.60;99.90
59556;DHT22;45374;52.746;6.304;2022-11-09T11:23:44;13.50;99.90
59556;DHT22;45374;52.746;6.304;2022-11-09T11:28:48;13.50;99.90
59556;DHT22;45374;52.746;6.304;2022-11-09T11:31:16;13.40;99.90
59556;DHT22;45374;52.746;6.304;2022-11-09T11:33:42;13.30;99.90
59556;DHT22;45374;52.746;6.304;2022-11-09T11:36:19;13.20;99.90
59556;DHT22;45374;52.746;6.304;2022-11-09T11:39:11;13.20;99.90
59556;DHT22;45374;52.746;6.304;2022-11-09T11:59:23;13.60;99.90
59556;DHT22;45374;52.746;6.304;2022-11-09T12:07:08;13.60;99.90
59556;DHT22;45374;52.746;6.304;2022-11-09T12:09:39;13.60;99.90
59556;DHT22;45374;52.746;6.304;2022-11-09T12:15:04;13.60;99.90
59556;DHT22;45374;52.746;6.304;2022-11-09T12:20:05;13.60;99.90
59556;DHT22;45374;52.746;6.304;2022-11-09T12:32:49;13.80;99.90
59556;DHT22;45374;52.746;6.304;2022-11-09T12:37:50;13.70;99.90
59556;DHT22;45374;52.746;6.304;2022-11-09T12:40:52;13.60;99.90
59556;DHT22;45374;52.746;6.304;2022-11-09T12:45:39;13.60;99.90
59556;DHT22;45374;52.746;6.304;2022-11-09T12:48:10;13.50;99.90
59556;DHT22;45374;52.746;6.304;2022-11-09T12:50:39;13.50;99.90
59556;DHT22;45374;52.746;6.304;2022-11-09T12:53:04;13.50;99.90
59556;DHT22;45374;52.746;6.304;2022-11-09T12:55:45;13.50;99.90
59556;DHT22;45374;52.746;6.304;2022-11-09T12:58:22;13.50;99.90
59556;DHT22;45374;52.746;6.304;2022-11-09T13:00:48;13.50;99.90
59556;DHT22;45374;52.746;6.304;2022-11-09T13:03:18;13.50;99.90
59556;DHT22;45374;52.746;6.304;2022-11-09T13:05:44;13.50;99.90
59556;DHT22;45374;52.746;6.304;2022-11-09T13:08:14;13.50;99.90
59556;DHT22;45374;52.746;6.304;2022-11-09T13:10:41;13.50;99.90
59556;DHT22;45374;52.746;6.304;2022-11-09T13:15:36;13.70;99.90
59556;DHT22;45374;52.746;6.304;2022-11-09T13:18:22;13.90;99.90
59556;DHT22;45374;52.746;6.304;2022-11-09T13:21:49;14.00;99.90
59556;DHT22;45374;52.746;6.304;2022-11-09T13:23:44;14.00;99.90
59556;DHT22;45374;52.746;6.304;2022-11-09T13:29:05;13.90;99.90
59556;DHT22;45374;52.746;6.304;2022-11-09T13:45:32;13.20;99.90
59556;DHT22;45374;52.746;6.304;2022-11-09T13:47:58;13.10;99.90
59556;DHT22;45374;52.746;6.304;2022-11-09T13:50:25;13.00;99.90
59556;DHT22;45374;52.746;6.304;2022-11-09T13:52:52;13.00;99.90
59556;DHT22;45374;52.746;6.304;2022-11-09T13:55:31;13.00;99.90
59556;DHT22;45374;52.746;6.304;2022-11-09T13:58:02;13.00;99.90
59556;DHT22;45374;52.746;6.304;2022-11-09T14:00:29;13.00;99.90
59556;DHT22;45374;52.746;6.304;2022-11-09T14:02:59;13.00;99.90
59556;DHT22;45374;52.746;6.304;2022-11-09T14:05:32;13.00;99.90
59556;DHT22;45374;52.746;6.304;2022-11-09T14:07:59;13.00;99.90
59556;DHT22;45374;52.746;6.304;2022-11-09T14:15:38;13.00;99.90
59556;DHT22;45374;52.746;6.304;2022-11-09T14:18:21;13.00;99.90
59556;DHT22;45374;52.746;6.304;2022-11-09T14:20:52;13.00;99.90
59556;DHT22;45374;52.746;6.304;2022-11-09T14:23:20;13.00;99.90
59556;DHT22;45374;52.746;6.304;2022-11-09T14:25:46;12.90;99.90
59556;DHT22;45374;52.746;6.304;2022-11-09T14:28:21;12.90;99.90
59556;DHT22;45374;52.746;6.304;2022-11-09T14:30:47;12.90;99.90
59556;DHT22;45374;52.746;6.304;2022-11-09T14:33:26;12.80;99.90
59556;DHT22;45374;52.746;6.304;2022-11-09T14:35:52;12.80;99.90
59556;DHT22;45374;52.746;6.304;2022-11-09T14:40:45;12.80;99.90
59556;DHT22;45374;52.746;6.304;2022-11-09T14:45:56;12.80;99.90
59556;DHT22;45374;52.746;6.304;2022-11-09T14:48:22;12.80;99.90
59556;DHT22;45374;52.746;6.304;2022-11-09T14:50:49;12.80;99.90
59556;DHT22;45374;52.746;6.304;2022-11-09T14:55:49;12.70;99.90
59556;DHT22;45374;52.746;6.304;2022-11-09T14:58:15;12.60;99.90
59556;DHT22;45374;52.746;6.304;2022-11-09T15:00:41;12.60;99.90
59556;DHT22;45374;52.746;6.304;2022-11-09T15:06:06;12.50;99.90
59556;DHT22;45374;52.746;6.304;2022-11-09T15:08:32;12.50;99.90
59556;DHT22;45374;52.746;6.304;2022-11-09T15:10:58;12.40;99.90
59556;DHT22;45374;52.746;6.304;2022-11-09T15:15:53;12.30;99.90
59556;DHT22;45374;52.746;6.304;2022-11-09T15:18:20;12.30;99.90
59556;DHT22;45374;52.746;6.304;2022-11-09T15:20:46;12.20;99.90
59556;DHT22;45374;52.746;6.304;2022-11-09T15:23:22;12.10;99.90
59556;DHT22;45374;52.746;6.304;2022-11-09T15:28:17;12.00;99.90
59556;DHT22;45374;52.746;6.304;2022-11-09T15:33:25;11.90;99.90
59556;DHT22;45374;52.746;6.304;2022-11-09T15:35:53;11.80;99.90
59556;DHT22;45374;52.746;6.304;2022-11-09T15:38:26;11.80;99.90
59556;DHT22;45374;52.746;6.304;2022-11-09T15:40:53;11.70;99.90
59556;DHT22;45374;52.746;6.304;2022-11-09T15:43:19;11.70;99.90
59556;DHT22;45374;52.746;6.304;2022-11-09T15:45:45;11.60;99.90
59556;DHT22;45374;52.746;6.304;2022-11-09T15:48:10;11.60;99.90
59556;DHT22;45374;52.746;6.304;2022-11-09T15:50:37;11.50;99.90
59556;DHT22;45374;52.746;6.304;2022-11-09T15:53:03;11.50;99.90
59556;DHT22;45374;52.746;6.304;2022-11-09T15:55:28;11.40;99.90
59556;DHT22;45374;52.746;6.304;2022-11-09T15:57:56;11.30;99.90
59556;DHT22;45374;52.746;6.304;2022-11-09T16:00:21;11.30;99.90
59556;DHT22;45374;52.746;6.304;2022-11-09T16:02:47;11.40;99.90
59556;DHT22;45374;52.746;6.304;2022-11-09T16:05:12;11.40;99.90
59556;DHT22;45374;52.746;6.304;2022-11-09T16:07:51;11.40;99.90
59556;DHT22;45374;52.746;6.304;2022-11-09T16:10:17;11.40;99.90
59556;DHT22;45374;52.746;6.304;2022-11-09T16:12:50;11.40;99.90
59556;DHT22;45374;52.746;6.304;2022-11-09T16:15:21;11.30;99.90
59556;DHT22;45374;52.746;6.304;2022-11-09T16:17:46;11.30;99.90
59556;DHT22;45374;52.746;6.304;2022-11-09T16:20:18;11.40;99.90
59556;DHT22;45374;52.746;6.304;2022-11-09T16:22:43;11.40;99.90
59556;DHT22;45374;52.746;6.304;2022-11-09T16:25:09;11.30;99.90
59556;DHT22;45374;52.746;6.304;2022-11-09T16:27:35;11.30;99.90
59556;DHT22;45374;52.746;6.304;2022-11-09T16:30:01;11.30;99.90
59556;DHT22;45374;52.746;6.304;2022-11-09T16:32:26;11.30;99.90
59556;DHT22;45374;52.746;6.304;2022-11-09T16:34:52;11.30;99.90
59556;DHT22;45374;52.746;6.304;2022-11-09T16:37:18;11.30;99.90
59556;DHT22;45374;52.746;6.304;2022-11-09T16:39:44;11.40;99.90
59556;DHT22;45374;52.746;6.304;2022-11-09T16:42:10;11.30;99.90
59556;DHT22;45374;52.746;6.304;2022-11-09T16:44:36;11.30;99.90
59556;DHT22;45374;52.746;6.304;2022-11-09T16:47:04;11.30;99.90
59556;DHT22;45374;52.746;6.304;2022-11-09T16:49:31;11.20;99.90
59556;DHT22;45374;52.746;6.304;2022-11-09T16:51:57;11.20;99.90
59556;DHT22;45374;52.746;6.304;2022-11-09T16:54:23;11.20;99.90
59556;DHT22;45374;52.746;6.304;2022-11-09T16:56:48;11.10;99.90
59556;DHT22;45374;52.746;6.304;2022-11-09T16:59:14;11.10;99.90
59556;DHT22;45374;52.746;6.304;2022-11-09T17:01:39;11.10;99.90
59556;DHT22;45374;52.746;6.304;2022-11-09T17:04:05;11.00;99.90
59556;DHT22;45374;52.746;6.304;2022-11-09T17:06:31;11.10;99.90
59556;DHT22;45374;52.746;6.304;2022-11-09T17:08:57;11.10;99.90
59556;DHT22;45374;52.746;6.304;2022-11-09T17:11:22;11.20;99.90
59556;DHT22;45374;52.746;6.304;2022-11-09T17:13:53;11.10;99.90
59556;DHT22;45374;52.746;6.304;2022-11-09T17:16:18;11.00;99.90
59556;DHT22;45374;52.746;6.304;2022-11-09T17:18:44;11.00;99.90
59556;DHT22;45374;52.746;6.304;2022-11-09T17:21:10;11.00;99.90
59556;DHT22;45374;52.746;6.304;2022-11-09T17:23:36;11.00;99.90
59556;DHT22;45374;52.746;6.304;2022-11-09T17:26:02;11.00;99.90
59556;DHT22;45374;52.746;6.304;2022-11-09T17:28:28;11.00;99.90
59556;DHT22;45374;52.746;6.304;2022-11-09T17:30:54;10.80;99.90
59556;DHT22;45374;52.746;6.304;2022-11-09T17:33:19;10.90;99.90
59556;DHT22;45374;52.746;6.304;2022-11-09T17:35:45;10.80;99.90
59556;DHT22;45374;52.746;6.304;2022-11-09T17:38:11;10.80;99.90
59556;DHT22;45374;52.746;6.304;2022-11-09T17:40:36;10.80;99.90
59556;DHT22;45374;52.746;6.304;2022-11-09T17:43:02;10.90;99.90
59556;DHT22;45374;52.746;6.304;2022-11-09T17:45:28;10.80;99.90
59556;DHT22;45374;52.746;6.304;2022-11-09T17:47:54;10.80;99.90
59556;DHT22;45374;52.746;6.304;2022-11-09T17:50:19;10.80;99.90
59556;DHT22;45374;52.746;6.304;2022-11-09T17:52:53;10.80;99.90
59556;DHT22;45374;52.746;6.304;2022-11-09T17:55:19;10.70;99.90
59556;DHT22;45374;52.746;6.304;2022-11-09T17:57:44;10.70;99.90
59556;DHT22;45374;52.746;6.304;2022-11-09T18:00:10;10.70;99.90
59556;DHT22;45374;52.746;6.304;2022-11-09T18:02:36;10.70;99.90
59556;DHT22;45374;52.746;6.304;2022-11-09T18:05:01;10.70;99.90
59556;DHT22;45374;52.746;6.304;2022-11-09T18:07:27;10.70;99.90
59556;DHT22;45374;52.746;6.304;2022-11-09T18:09:54;10.60;99.90